Sail Way — CRA4549 — position and weather

sailwx.info

Track history (hours):
 
Tides and Currents Weather Stations Pressure Air Temp Water Temp Dewpoint Dewpoint Depression Visibility Wind Speed Wind Dir Waves Ship Positions

Sail Way

Last reported at 2017-Apr-24 14:56 UTC. Time now 2017-Apr-25 06:41 UTC.
Position N 37°06' W 008°40'.

Length 12 m.

Type: Sailing vessel. MMSI: 263912770.

Date/timePositionNaut miles runAvg speedWind from/ knotsBaromVisibWave heightAir tempDewpointWater temp
2017-Apr-24 14:56N 37°06' W 008°40'0 0.1
2017-Apr-24 14:30N 37°06' W 008°40'3 2.8
2017-Apr-24 13:30N 37°07' W 008°37'0 0.1
2017-Apr-24 13:00N 37°07' W 008°37'0 0.0
2017-Apr-24 12:30N 37°07' W 008°37'0 0.0
2017-Apr-24 12:00N 37°07' W 008°37'1 2.6
2017-Apr-24 11:30N 37°06' W 008°36'2 4.6
2017-Apr-24 11:00N 37°06' W 008°34'2 0.1
2017-Apr-23 16:25N 37°07' W 008°32'0 0.0
2017-Apr-23 15:49N 37°07' W 008°32'1 0.8
2017-Apr-23 15:12N 37°08' W 008°32'1 2.5
2017-Apr-23 14:57N 37°07' W 008°32'1 0.9
2017-Apr-23 14:00N 37°06' W 008°32'1 1.2
2017-Apr-23 13:29N 37°06' W 008°33'1 1.2
2017-Apr-23 13:00N 37°07' W 008°33'1 0.4
2017-Apr-23 10:44N 37°07' W 008°32'0 0.0
2017-Apr-23 09:15N 37°07' W 008°32'0 0.0
2017-Apr-22 15:00N 37°07' W 008°32'0 0.0
2017-Apr-22 14:18N 37°07' W 008°32'0 0.0
2017-Apr-22 13:18N 37°07' W 008°32'0 0.0
2017-Apr-22 13:00N 37°07' W 008°32'0 0.0
2017-Apr-22 12:24N 37°07' W 008°32'0 0.0
2017-Apr-22 11:54N 37°07' W 008°32'0 0.0
2017-Apr-22 11:24N 37°07' W 008°32'0 0.0
2017-Apr-22 11:00N 37°07' W 008°32'  
2017-Apr-16 12:16N 37°07' W 008°32'1 2.8
2017-Apr-16 11:59N 37°06' W 008°32'0 0.3
2017-Apr-16 11:30N 37°07' W 008°32'0 0.3
2017-Apr-16 11:00N 37°07' W 008°32'0 0.2
2017-Apr-16 10:30N 37°07' W 008°33'0 0.3
2017-Apr-16 10:00N 37°07' W 008°33'1 0.0
2017-Apr-15 15:01N 37°07' W 008°32'1 1.5
2017-Apr-15 14:30N 37°08' W 008°32'3 3.2
2017-Apr-15 13:26N 37°06' W 008°28'3 5.7
2017-Apr-15 12:56N 37°04' W 008°25'0 0.3
2017-Apr-15 12:21N 37°04' W 008°25'1 3.4
2017-Apr-15 11:59N 37°04' W 008°24'2 3.4
2017-Apr-15 11:28N 37°04' W 008°22'2 3.4
2017-Apr-15 11:00N 37°04' W 008°20'  
Track history (hours):
 
Tides and Currents Weather Stations Pressure Air Temp Water Temp Dewpoint Dewpoint Depression Visibility Wind Speed Wind Dir Waves Ship Positions

Sail Way

Last reported at 2017-Apr-24 14:56 UTC. Time now 2017-Apr-25 06:41 UTC.
Position N 37°06' W 008°40'.

Length 12 m.

Type: Sailing vessel. MMSI: 263912770.

Date/timePositionNaut miles runAvg speedWind from/ knotsBaromVisibWave heightAir tempDewpointWater temp
2017-Apr-24 14:56N 37°06' W 008°40'0 0.1
2017-Apr-24 14:30N 37°06' W 008°40'3 2.8
2017-Apr-24 13:30N 37°07' W 008°37'0 0.1
2017-Apr-24 13:00N 37°07' W 008°37'0 0.0
2017-Apr-24 12:30N 37°07' W 008°37'0 0.0
2017-Apr-24 12:00N 37°07' W 008°37'1 2.6
2017-Apr-24 11:30N 37°06' W 008°36'2 4.6
2017-Apr-24 11:00N 37°06' W 008°34'2 0.1
2017-Apr-23 16:25N 37°07' W 008°32'0 0.0
2017-Apr-23 15:49N 37°07' W 008°32'1 0.8
2017-Apr-23 15:12N 37°08' W 008°32'1 2.5
2017-Apr-23 14:57N 37°07' W 008°32'1 0.9
2017-Apr-23 14:00N 37°06' W 008°32'1 1.2
2017-Apr-23 13:29N 37°06' W 008°33'1 1.2
2017-Apr-23 13:00N 37°07' W 008°33'1 0.4
2017-Apr-23 10:44N 37°07' W 008°32'0 0.0
2017-Apr-23 09:15N 37°07' W 008°32'0 0.0
2017-Apr-22 15:00N 37°07' W 008°32'0 0.0
2017-Apr-22 14:18N 37°07' W 008°32'0 0.0
2017-Apr-22 13:18N 37°07' W 008°32'0 0.0
2017-Apr-22 13:00N 37°07' W 008°32'0 0.0
2017-Apr-22 12:24N 37°07' W 008°32'0 0.0
2017-Apr-22 11:54N 37°07' W 008°32'0 0.0
2017-Apr-22 11:24N 37°07' W 008°32'0 0.0
2017-Apr-22 11:00N 37°07' W 008°32'  
2017-Apr-16 12:16N 37°07' W 008°32'1 2.8
2017-Apr-16 11:59N 37°06' W 008°32'0 0.3
2017-Apr-16 11:30N 37°07' W 008°32'0 0.3
2017-Apr-16 11:00N 37°07' W 008°32'0 0.2
2017-Apr-16 10:30N 37°07' W 008°33'0 0.3
2017-Apr-16 10:00N 37°07' W 008°33'1 0.0
2017-Apr-15 15:01N 37°07' W 008°32'1 1.5
2017-Apr-15 14:30N 37°08' W 008°32'3 3.2
2017-Apr-15 13:26N 37°06' W 008°28'3 5.7
2017-Apr-15 12:56N 37°04' W 008°25'0 0.3
2017-Apr-15 12:21N 37°04' W 008°25'1 3.4
2017-Apr-15 11:59N 37°04' W 008°24'2 3.4
2017-Apr-15 11:28N 37°04' W 008°22'2 3.4
2017-Apr-15 11:00N 37°04' W 008°20'  

Dump ship's entire track history